sensor_id;sensor_type;location;lat;lon;timestamp;P1;durP1;ratioP1;P2;durP2;ratioP2
26201;SDS011;13944;28.562;77.188;2022-08-19T00:00:36;13.50;;;6.20;;
26201;SDS011;13944;28.562;77.188;2022-08-19T00:03:03;12.65;;;6.35;;
26201;SDS011;13944;28.562;77.188;2022-08-19T00:05:30;12.13;;;6.38;;
26201;SDS011;13944;28.562;77.188;2022-08-19T00:07:56;12.93;;;6.50;;
26201;SDS011;13944;28.562;77.188;2022-08-19T00:10:23;11.35;;;5.88;;
26201;SDS011;13944;28.562;77.188;2022-08-19T00:12:50;12.02;;;6.00;;
26201;SDS011;13944;28.562;77.188;2022-08-19T00:15:18;13.18;;;6.72;;
26201;SDS011;13944;28.562;77.188;2022-08-19T00:17:45;15.98;;;6.45;;
26201;SDS011;13944;28.562;77.188;2022-08-19T00:20:13;14.60;;;6.57;;
26201;SDS011;13944;28.562;77.188;2022-08-19T00:22:42;13.73;;;6.43;;
26201;SDS011;13944;28.562;77.188;2022-08-19T00:25:08;10.35;;;6.03;;
26201;SDS011;13944;28.562;77.188;2022-08-19T00:27:35;10.90;;;6.45;;
26201;SDS011;13944;28.562;77.188;2022-08-19T00:30:03;15.98;;;7.22;;
26201;SDS011;13944;28.562;77.188;2022-08-19T00:32:29;16.73;;;7.90;;
26201;SDS011;13944;28.562;77.188;2022-08-19T00:34:56;17.77;;;8.48;;
26201;SDS011;13944;28.562;77.188;2022-08-19T00:37:23;15.82;;;8.90;;
26201;SDS011;13944;28.562;77.188;2022-08-19T00:39:51;15.77;;;9.15;;
26201;SDS011;13944;28.562;77.188;2022-08-19T00:42:18;16.70;;;8.48;;
26201;SDS011;13944;28.562;77.188;2022-08-19T00:44:45;16.67;;;8.60;;
26201;SDS011;13944;28.562;77.188;2022-08-19T00:47:12;14.10;;;7.57;;
26201;SDS011;13944;28.562;77.188;2022-08-19T00:49:49;17.58;;;8.18;;
26201;SDS011;13944;28.562;77.188;2022-08-19T00:52:26;17.88;;;7.85;;
26201;SDS011;13944;28.562;77.188;2022-08-19T00:54:57;14.07;;;6.95;;
26201;SDS011;13944;28.562;77.188;2022-08-19T00:57:25;23.20;;;7.82;;
26201;SDS011;13944;28.562;77.188;2022-08-19T00:59:53;25.45;;;7.22;;
26201;SDS011;13944;28.562;77.188;2022-08-19T01:02:20;19.45;;;7.00;;
26201;SDS011;13944;28.562;77.188;2022-08-19T01:04:47;32.63;;;7.63;;
26201;SDS011;13944;28.562;77.188;2022-08-19T01:07:14;15.45;;;7.15;;
26201;SDS011;13944;28.562;77.188;2022-08-19T01:09:40;42.20;;;8.60;;
26201;SDS011;13944;28.562;77.188;2022-08-19T01:12:07;24.05;;;7.65;;
26201;SDS011;13944;28.562;77.188;2022-08-19T01:14:34;14.65;;;6.78;;
26201;SDS011;13944;28.562;77.188;2022-08-19T01:17:01;17.77;;;6.38;;
26201;SDS011;13944;28.562;77.188;2022-08-19T01:19:32;11.55;;;6.30;;
26201;SDS011;13944;28.562;77.188;2022-08-19T01:24:39;12.98;;;6.53;;
26201;SDS011;13944;28.562;77.188;2022-08-19T01:27:06;13.88;;;6.55;;
26201;SDS011;13944;28.562;77.188;2022-08-19T01:29:33;15.38;;;6.70;;
26201;SDS011;13944;28.562;77.188;2022-08-19T01:32:00;15.82;;;7.10;;
26201;SDS011;13944;28.562;77.188;2022-08-19T01:34:27;13.95;;;6.63;;
26201;SDS011;13944;28.562;77.188;2022-08-19T01:36:53;14.75;;;6.60;;
26201;SDS011;13944;28.562;77.188;2022-08-19T01:39:21;15.38;;;7.50;;
26201;SDS011;13944;28.562;77.188;2022-08-19T01:41:48;18.27;;;7.78;;
26201;SDS011;13944;28.562;77.188;2022-08-19T01:44:15;13.50;;;6.65;;
26201;SDS011;13944;28.562;77.188;2022-08-19T01:46:42;13.77;;;6.70;;
26201;SDS011;13944;28.562;77.188;2022-08-19T01:49:09;16.88;;;7.80;;
26201;SDS011;13944;28.562;77.188;2022-08-19T01:51:36;14.77;;;7.53;;
26201;SDS011;13944;28.562;77.188;2022-08-19T01:54:03;13.48;;;7.05;;
26201;SDS011;13944;28.562;77.188;2022-08-19T01:56:29;15.65;;;7.20;;
26201;SDS011;13944;28.562;77.188;2022-08-19T01:59:00;17.02;;;7.53;;
26201;SDS011;13944;28.562;77.188;2022-08-19T02:01:27;17.23;;;7.80;;
26201;SDS011;13944;28.562;77.188;2022-08-19T02:03:57;18.35;;;8.57;;
26201;SDS011;13944;28.562;77.188;2022-08-19T02:06:26;19.58;;;8.45;;
26201;SDS011;13944;28.562;77.188;2022-08-19T02:08:52;19.80;;;9.45;;
26201;SDS011;13944;28.562;77.188;2022-08-19T02:11:21;14.27;;;8.38;;
26201;SDS011;13944;28.562;77.188;2022-08-19T02:13:47;16.98;;;8.50;;
26201;SDS011;13944;28.562;77.188;2022-08-19T02:16:16;19.27;;;8.85;;
26201;SDS011;13944;28.562;77.188;2022-08-19T02:18:42;17.15;;;8.80;;
26201;SDS011;13944;28.562;77.188;2022-08-19T02:21:09;18.92;;;9.10;;
26201;SDS011;13944;28.562;77.188;2022-08-19T02:23:36;17.48;;;9.23;;
26201;SDS011;13944;28.562;77.188;2022-08-19T02:26:02;19.42;;;11.30;;
26201;SDS011;13944;28.562;77.188;2022-08-19T02:28:29;24.77;;;12.65;;
26201;SDS011;13944;28.562;77.188;2022-08-19T02:30:55;16.02;;;9.80;;
26201;SDS011;13944;28.562;77.188;2022-08-19T02:33:22;18.27;;;9.07;;
26201;SDS011;13944;28.562;77.188;2022-08-19T02:35:48;18.80;;;9.32;;
26201;SDS011;13944;28.562;77.188;2022-08-19T02:38:15;18.45;;;9.75;;
26201;SDS011;13944;28.562;77.188;2022-08-19T02:40:58;22.45;;;10.23;;
26201;SDS011;13944;28.562;77.188;2022-08-19T02:43:25;19.40;;;10.13;;
26201;SDS011;13944;28.562;77.188;2022-08-19T02:45:52;27.52;;;10.65;;
26201;SDS011;13944;28.562;77.188;2022-08-19T02:48:20;21.38;;;10.48;;
26201;SDS011;13944;28.562;77.188;2022-08-19T02:50:47;17.85;;;10.38;;
26201;SDS011;13944;28.562;77.188;2022-08-19T02:53:16;18.30;;;9.88;;
26201;SDS011;13944;28.562;77.188;2022-08-19T02:55:43;21.52;;;10.07;;
26201;SDS011;13944;28.562;77.188;2022-08-19T02:58:11;18.52;;;9.90;;
26201;SDS011;13944;28.562;77.188;2022-08-19T03:00:41;18.80;;;11.10;;
26201;SDS011;13944;28.562;77.188;2022-08-19T03:03:08;18.73;;;9.60;;
26201;SDS011;13944;28.562;77.188;2022-08-19T03:05:35;17.38;;;9.52;;
26201;SDS011;13944;28.562;77.188;2022-08-19T03:08:02;17.65;;;9.40;;
26201;SDS011;13944;28.562;77.188;2022-08-19T03:10:29;22.48;;;9.18;;
26201;SDS011;13944;28.562;77.188;2022-08-19T03:12:55;17.88;;;9.20;;
26201;SDS011;13944;28.562;77.188;2022-08-19T03:15:22;18.65;;;9.70;;
26201;SDS011;13944;28.562;77.188;2022-08-19T03:17:49;17.85;;;9.40;;
26201;SDS011;13944;28.562;77.188;2022-08-19T03:20:15;24.73;;;10.50;;
26201;SDS011;13944;28.562;77.188;2022-08-19T03:22:42;28.92;;;11.05;;
26201;SDS011;13944;28.562;77.188;2022-08-19T03:25:08;23.55;;;10.63;;
26201;SDS011;13944;28.562;77.188;2022-08-19T03:27:37;21.35;;;10.27;;
26201;SDS011;13944;28.562;77.188;2022-08-19T03:30:03;18.25;;;9.93;;
26201;SDS011;13944;28.562;77.188;2022-08-19T03:32:32;22.90;;;9.85;;
26201;SDS011;13944;28.562;77.188;2022-08-19T03:34:58;21.65;;;11.70;;
26201;SDS011;13944;28.562;77.188;2022-08-19T03:37:25;20.35;;;12.05;;
26201;SDS011;13944;28.562;77.188;2022-08-19T03:39:51;19.10;;;11.18;;
26201;SDS011;13944;28.562;77.188;2022-08-19T03:42:18;17.85;;;10.15;;
26201;SDS011;13944;28.562;77.188;2022-08-19T03:44:45;19.00;;;10.55;;
26201;SDS011;13944;28.562;77.188;2022-08-19T03:47:11;17.90;;;10.30;;
26201;SDS011;13944;28.562;77.188;2022-08-19T03:49:42;22.77;;;11.98;;
26201;SDS011;13944;28.562;77.188;2022-08-19T03:52:08;18.70;;;10.88;;
26201;SDS011;13944;28.562;77.188;2022-08-19T03:54:35;25.20;;;11.48;;
26201;SDS011;13944;28.562;77.188;2022-08-19T03:57:03;27.40;;;11.98;;
26201;SDS011;13944;28.562;77.188;2022-08-19T03:59:31;22.65;;;11.95;;
26201;SDS011;13944;28.562;77.188;2022-08-19T04:01:59;29.05;;;12.45;;
26201;SDS011;13944;28.562;77.188;2022-08-19T04:04:29;27.13;;;12.73;;
26201;SDS011;13944;28.562;77.188;2022-08-19T04:06:56;31.55;;;13.40;;
26201;SDS011;13944;28.562;77.188;2022-08-19T04:09:23;33.97;;;15.63;;
26201;SDS011;13944;28.562;77.188;2022-08-19T04:11:50;27.73;;;14.48;;
26201;SDS011;13944;28.562;77.188;2022-08-19T04:14:20;30.20;;;14.95;;
26201;SDS011;13944;28.562;77.188;2022-08-19T04:16:48;40.90;;;21.50;;
26201;SDS011;13944;28.562;77.188;2022-08-19T04:19:15;33.95;;;18.92;;
26201;SDS011;13944;28.562;77.188;2022-08-19T04:21:46;25.08;;;15.38;;
26201;SDS011;13944;28.562;77.188;2022-08-19T04:24:13;28.98;;;13.50;;
26201;SDS011;13944;28.562;77.188;2022-08-19T04:26:40;25.20;;;13.20;;
26201;SDS011;13944;28.562;77.188;2022-08-19T04:29:08;24.55;;;14.38;;
26201;SDS011;13944;28.562;77.188;2022-08-19T04:31:35;28.25;;;14.85;;
26201;SDS011;13944;28.562;77.188;2022-08-19T04:34:03;26.70;;;14.93;;
26201;SDS011;13944;28.562;77.188;2022-08-19T04:36:31;22.73;;;12.98;;
26201;SDS011;13944;28.562;77.188;2022-08-19T04:39:03;29.60;;;15.63;;
26201;SDS011;13944;28.562;77.188;2022-08-19T04:41:30;23.38;;;14.68;;
26201;SDS011;13944;28.562;77.188;2022-08-19T04:44:15;29.23;;;14.23;;
26201;SDS011;13944;28.562;77.188;2022-08-19T04:46:46;26.20;;;14.00;;
26201;SDS011;13944;28.562;77.188;2022-08-19T04:49:13;24.77;;;12.75;;
26201;SDS011;13944;28.562;77.188;2022-08-19T04:51:41;23.30;;;12.63;;
26201;SDS011;13944;28.562;77.188;2022-08-19T04:54:08;28.50;;;12.13;;
26201;SDS011;13944;28.562;77.188;2022-08-19T04:56:34;27.80;;;12.00;;
26201;SDS011;13944;28.562;77.188;2022-08-19T04:59:01;26.67;;;10.75;;
26201;SDS011;13944;28.562;77.188;2022-08-19T05:01:32;23.55;;;10.52;;
26201;SDS011;13944;28.562;77.188;2022-08-19T05:03:59;18.83;;;9.70;;
26201;SDS011;13944;28.562;77.188;2022-08-19T05:06:27;25.55;;;10.18;;
26201;SDS011;13944;28.562;77.188;2022-08-19T05:08:54;20.63;;;10.65;;
26201;SDS011;13944;28.562;77.188;2022-08-19T05:11:23;32.15;;;11.15;;
26201;SDS011;13944;28.562;77.188;2022-08-19T05:13:51;29.50;;;11.13;;
26201;SDS011;13944;28.562;77.188;2022-08-19T05:16:18;24.70;;;10.52;;
26201;SDS011;13944;28.562;77.188;2022-08-19T05:18:45;21.90;;;10.70;;
26201;SDS011;13944;28.562;77.188;2022-08-19T05:21:33;19.52;;;10.02;;
26201;SDS011;13944;28.562;77.188;2022-08-19T05:24:26;19.35;;;9.75;;
26201;SDS011;13944;28.562;77.188;2022-08-19T05:26:53;23.98;;;9.85;;
26201;SDS011;13944;28.562;77.188;2022-08-19T05:29:22;21.70;;;9.95;;
26201;SDS011;13944;28.562;77.188;2022-08-19T05:31:49;20.85;;;9.25;;
26201;SDS011;13944;28.562;77.188;2022-08-19T05:34:17;23.70;;;9.45;;
26201;SDS011;13944;28.562;77.188;2022-08-19T05:36:47;22.70;;;9.90;;
26201;SDS011;13944;28.562;77.188;2022-08-19T05:39:16;26.80;;;10.55;;
26201;SDS011;13944;28.562;77.188;2022-08-19T05:41:43;26.40;;;10.23;;
26201;SDS011;13944;28.562;77.188;2022-08-19T05:44:10;25.65;;;9.90;;
26201;SDS011;13944;28.562;77.188;2022-08-19T05:46:37;25.30;;;9.68;;
26201;SDS011;13944;28.562;77.188;2022-08-19T05:49:04;29.73;;;11.25;;
26201;SDS011;13944;28.562;77.188;2022-08-19T05:51:32;23.95;;;10.00;;
26201;SDS011;13944;28.562;77.188;2022-08-19T05:54:00;22.83;;;12.40;;
26201;SDS011;13944;28.562;77.188;2022-08-19T05:56:26;23.00;;;11.20;;
26201;SDS011;13944;28.562;77.188;2022-08-19T05:58:53;20.40;;;9.75;;
26201;SDS011;13944;28.562;77.188;2022-08-19T06:01:20;21.10;;;9.75;;
26201;SDS011;13944;28.562;77.188;2022-08-19T06:03:47;17.52;;;9.60;;
26201;SDS011;13944;28.562;77.188;2022-08-19T06:06:15;21.60;;;10.23;;
26201;SDS011;13944;28.562;77.188;2022-08-19T06:08:42;24.67;;;11.25;;
26201;SDS011;13944;28.562;77.188;2022-08-19T06:11:18;21.27;;;11.63;;
26201;SDS011;13944;28.562;77.188;2022-08-19T06:13:46;20.42;;;11.70;;
26201;SDS011;13944;28.562;77.188;2022-08-19T06:16:19;23.55;;;10.60;;
26201;SDS011;13944;28.562;77.188;2022-08-19T06:18:51;18.65;;;9.73;;
26201;SDS011;13944;28.562;77.188;2022-08-19T06:21:19;19.40;;;9.48;;
26201;SDS011;13944;28.562;77.188;2022-08-19T06:23:46;18.25;;;9.10;;
26201;SDS011;13944;28.562;77.188;2022-08-19T06:26:13;14.30;;;6.95;;
26201;SDS011;13944;28.562;77.188;2022-08-19T06:28:40;21.30;;;8.60;;
26201;SDS011;13944;28.562;77.188;2022-08-19T06:31:18;19.08;;;10.02;;
26201;SDS011;13944;28.562;77.188;2022-08-19T06:33:48;20.00;;;10.18;;
26201;SDS011;13944;28.562;77.188;2022-08-19T06:36:16;19.27;;;10.23;;
26201;SDS011;13944;28.562;77.188;2022-08-19T06:38:45;20.83;;;10.00;;
26201;SDS011;13944;28.562;77.188;2022-08-19T06:41:12;22.02;;;10.60;;
26201;SDS011;13944;28.562;77.188;2022-08-19T06:43:39;19.17;;;11.25;;
26201;SDS011;13944;28.562;77.188;2022-08-19T06:46:12;22.65;;;10.38;;
26201;SDS011;13944;28.562;77.188;2022-08-19T06:48:41;19.88;;;10.50;;
26201;SDS011;13944;28.562;77.188;2022-08-19T06:51:07;20.35;;;10.40;;
26201;SDS011;13944;28.562;77.188;2022-08-19T06:53:34;20.25;;;10.82;;
26201;SDS011;13944;28.562;77.188;2022-08-19T06:56:01;20.80;;;10.68;;
26201;SDS011;13944;28.562;77.188;2022-08-19T06:58:28;21.58;;;10.27;;
26201;SDS011;13944;28.562;77.188;2022-08-19T07:01:02;23.60;;;10.52;;
26201;SDS011;13944;28.562;77.188;2022-08-19T07:03:30;19.77;;;10.25;;
26201;SDS011;13944;28.562;77.188;2022-08-19T07:05:58;20.20;;;10.43;;
26201;SDS011;13944;28.562;77.188;2022-08-19T07:08:28;21.58;;;10.85;;
26201;SDS011;13944;28.562;77.188;2022-08-19T07:10:55;22.38;;;11.27;;
26201;SDS011;13944;28.562;77.188;2022-08-19T07:13:21;18.90;;;10.70;;
26201;SDS011;13944;28.562;77.188;2022-08-19T07:15:49;23.98;;;11.07;;
26201;SDS011;13944;28.562;77.188;2022-08-19T07:18:17;21.27;;;11.18;;
26201;SDS011;13944;28.562;77.188;2022-08-19T07:20:43;17.83;;;10.38;;
26201;SDS011;13944;28.562;77.188;2022-08-19T07:23:10;20.90;;;11.10;;
26201;SDS011;13944;28.562;77.188;2022-08-19T07:25:37;25.00;;;11.07;;
26201;SDS011;13944;28.562;77.188;2022-08-19T07:28:04;19.30;;;10.43;;
26201;SDS011;13944;28.562;77.188;2022-08-19T07:30:36;21.88;;;11.25;;
26201;SDS011;13944;28.562;77.188;2022-08-19T07:33:03;19.55;;;10.70;;
26201;SDS011;13944;28.562;77.188;2022-08-19T07:35:29;21.55;;;10.48;;
26201;SDS011;13944;28.562;77.188;2022-08-19T07:37:57;25.80;;;10.13;;
26201;SDS011;13944;28.562;77.188;2022-08-19T07:40:27;21.52;;;10.93;;
26201;SDS011;13944;28.562;77.188;2022-08-19T07:42:54;19.10;;;10.05;;
26201;SDS011;13944;28.562;77.188;2022-08-19T07:45:20;22.95;;;11.70;;
26201;SDS011;13944;28.562;77.188;2022-08-19T07:47:47;21.85;;;10.73;;
26201;SDS011;13944;28.562;77.188;2022-08-19T07:50:14;25.63;;;11.23;;
26201;SDS011;13944;28.562;77.188;2022-08-19T07:52:41;20.13;;;10.70;;
26201;SDS011;13944;28.562;77.188;2022-08-19T07:55:09;22.55;;;11.18;;
26201;SDS011;13944;28.562;77.188;2022-08-19T07:57:36;23.27;;;11.15;;
26201;SDS011;13944;28.562;77.188;2022-08-19T08:00:04;20.60;;;10.68;;
26201;SDS011;13944;28.562;77.188;2022-08-19T08:02:31;26.40;;;11.68;;
26201;SDS011;13944;28.562;77.188;2022-08-19T08:04:58;22.50;;;11.75;;
26201;SDS011;13944;28.562;77.188;2022-08-19T08:07:56;25.30;;;11.20;;
26201;SDS011;13944;28.562;77.188;2022-08-19T08:10:42;21.85;;;9.85;;
26201;SDS011;13944;28.562;77.188;2022-08-19T08:13:08;23.20;;;10.52;;
26201;SDS011;13944;28.562;77.188;2022-08-19T08:15:35;18.08;;;10.20;;
26201;SDS011;13944;28.562;77.188;2022-08-19T08:18:02;24.55;;;9.15;;
26201;SDS011;13944;28.562;77.188;2022-08-19T08:20:29;27.05;;;9.00;;
26201;SDS011;13944;28.562;77.188;2022-08-19T08:22:55;19.75;;;9.20;;
26201;SDS011;13944;28.562;77.188;2022-08-19T08:25:40;25.60;;;10.27;;
26201;SDS011;13944;28.562;77.188;2022-08-19T08:28:07;21.88;;;10.63;;
26201;SDS011;13944;28.562;77.188;2022-08-19T08:30:34;21.02;;;10.63;;
26201;SDS011;13944;28.562;77.188;2022-08-19T08:33:02;25.05;;;10.48;;
26201;SDS011;13944;28.562;77.188;2022-08-19T08:35:29;21.35;;;9.30;;
26201;SDS011;13944;28.562;77.188;2022-08-19T08:37:55;22.02;;;9.30;;
26201;SDS011;13944;28.562;77.188;2022-08-19T08:51:09;18.17;;;8.20;;
26201;SDS011;13944;28.562;77.188;2022-08-19T08:53:37;21.50;;;8.18;;
26201;SDS011;13944;28.562;77.188;2022-08-19T08:56:04;22.02;;;8.38;;
26201;SDS011;13944;28.562;77.188;2022-08-19T08:58:36;18.42;;;7.45;;
26201;SDS011;13944;28.562;77.188;2022-08-19T09:01:08;18.20;;;7.25;;
26201;SDS011;13944;28.562;77.188;2022-08-19T09:03:36;19.98;;;7.80;;
26201;SDS011;13944;28.562;77.188;2022-08-19T09:06:04;18.65;;;6.00;;
26201;SDS011;13944;28.562;77.188;2022-08-19T09:08:37;20.90;;;5.60;;
26201;SDS011;13944;28.562;77.188;2022-08-19T09:11:10;16.85;;;5.80;;
26201;SDS011;13944;28.562;77.188;2022-08-19T09:13:44;19.35;;;6.47;;
26201;SDS011;13944;28.562;77.188;2022-08-19T09:16:19;12.98;;;6.50;;
26201;SDS011;13944;28.562;77.188;2022-08-19T09:18:51;15.27;;;6.25;;
26201;SDS011;13944;28.562;77.188;2022-08-19T09:21:19;14.00;;;6.25;;
26201;SDS011;13944;28.562;77.188;2022-08-19T09:23:48;13.70;;;6.28;;
26201;SDS011;13944;28.562;77.188;2022-08-19T09:26:16;15.50;;;5.70;;
26201;SDS011;13944;28.562;77.188;2022-08-19T09:28:44;15.80;;;6.38;;
26201;SDS011;13944;28.562;77.188;2022-08-19T09:31:11;13.18;;;5.63;;
26201;SDS011;13944;28.562;77.188;2022-08-19T09:33:38;16.95;;;5.70;;
26201;SDS011;13944;28.562;77.188;2022-08-19T09:36:10;13.95;;;5.45;;
26201;SDS011;13944;28.562;77.188;2022-08-19T09:38:36;16.02;;;5.78;;
26201;SDS011;13944;28.562;77.188;2022-08-19T09:41:07;12.65;;;5.93;;
26201;SDS011;13944;28.562;77.188;2022-08-19T09:43:36;16.83;;;6.70;;
26201;SDS011;13944;28.562;77.188;2022-08-19T09:46:03;17.45;;;6.32;;
26201;SDS011;13944;28.562;77.188;2022-08-19T09:48:34;11.38;;;5.93;;
26201;SDS011;13944;28.562;77.188;2022-08-19T09:51:05;10.88;;;5.47;;
26201;SDS011;13944;28.562;77.188;2022-08-19T09:53:37;12.40;;;5.45;;
26201;SDS011;13944;28.562;77.188;2022-08-19T09:56:04;16.95;;;5.70;;
26201;SDS011;13944;28.562;77.188;2022-08-19T09:58:31;15.48;;;5.43;;
26201;SDS011;13944;28.562;77.188;2022-08-19T10:00:58;16.02;;;5.60;;
26201;SDS011;13944;28.562;77.188;2022-08-19T10:03:25;13.35;;;5.22;;
26201;SDS011;13944;28.562;77.188;2022-08-19T10:05:52;13.95;;;5.82;;
26201;SDS011;13944;28.562;77.188;2022-08-19T10:08:23;12.63;;;5.38;;
26201;SDS011;13944;28.562;77.188;2022-08-19T10:10:51;16.55;;;6.38;;
26201;SDS011;13944;28.562;77.188;2022-08-19T10:13:19;20.70;;;5.90;;
26201;SDS011;13944;28.562;77.188;2022-08-19T10:15:50;17.90;;;6.60;;
26201;SDS011;13944;28.562;77.188;2022-08-19T10:18:18;17.08;;;5.35;;
26201;SDS011;13944;28.562;77.188;2022-08-19T10:20:45;13.52;;;5.85;;
26201;SDS011;13944;28.562;77.188;2022-08-19T10:23:12;21.60;;;6.00;;
26201;SDS011;13944;28.562;77.188;2022-08-19T10:25:40;16.98;;;6.30;;
26201;SDS011;13944;28.562;77.188;2022-08-19T10:28:07;18.73;;;6.00;;
26201;SDS011;13944;28.562;77.188;2022-08-19T10:30:36;18.83;;;6.28;;
26201;SDS011;13944;28.562;77.188;2022-08-19T10:33:03;18.23;;;6.63;;
26201;SDS011;13944;28.562;77.188;2022-08-19T10:35:30;21.67;;;6.80;;
26201;SDS011;13944;28.562;77.188;2022-08-19T10:37:56;16.80;;;6.10;;
26201;SDS011;13944;28.562;77.188;2022-08-19T10:40:28;18.50;;;6.70;;
26201;SDS011;13944;28.562;77.188;2022-08-19T10:42:54;13.90;;;5.70;;
26201;SDS011;13944;28.562;77.188;2022-08-19T10:45:22;22.02;;;6.18;;
26201;SDS011;13944;28.562;77.188;2022-08-19T10:47:50;17.55;;;5.97;;
26201;SDS011;13944;28.562;77.188;2022-08-19T10:50:17;11.98;;;5.65;;
26201;SDS011;13944;28.562;77.188;2022-08-19T10:53:06;13.43;;;5.25;;
26201;SDS011;13944;28.562;77.188;2022-08-19T10:55:36;18.70;;;5.43;;
26201;SDS011;13944;28.562;77.188;2022-08-19T10:58:21;21.58;;;6.20;;
26201;SDS011;13944;28.562;77.188;2022-08-19T11:00:52;15.68;;;5.60;;
26201;SDS011;13944;28.562;77.188;2022-08-19T11:03:19;16.30;;;5.80;;
26201;SDS011;13944;28.562;77.188;2022-08-19T11:05:46;14.23;;;6.00;;
26201;SDS011;13944;28.562;77.188;2022-08-19T11:08:14;14.65;;;5.82;;
26201;SDS011;13944;28.562;77.188;2022-08-19T11:10:43;15.55;;;5.97;;
26201;SDS011;13944;28.562;77.188;2022-08-19T11:13:10;18.90;;;6.05;;
26201;SDS011;13944;28.562;77.188;2022-08-19T11:15:36;18.23;;;6.03;;
26201;SDS011;13944;28.562;77.188;2022-08-19T11:18:03;14.70;;;5.60;;
26201;SDS011;13944;28.562;77.188;2022-08-19T11:20:30;15.18;;;5.88;;
26201;SDS011;13944;28.562;77.188;2022-08-19T11:22:57;15.05;;;6.00;;
26201;SDS011;13944;28.562;77.188;2022-08-19T11:25:23;19.40;;;7.13;;
26201;SDS011;13944;28.562;77.188;2022-08-19T11:27:50;18.88;;;6.10;;
26201;SDS011;13944;28.562;77.188;2022-08-19T11:30:17;17.10;;;6.15;;
26201;SDS011;13944;28.562;77.188;2022-08-19T11:32:43;16.50;;;5.97;;
26201;SDS011;13944;28.562;77.188;2022-08-19T11:35:10;15.07;;;5.95;;
26201;SDS011;13944;28.562;77.188;2022-08-19T11:37:37;18.30;;;5.63;;
26201;SDS011;13944;28.562;77.188;2022-08-19T11:40:04;15.07;;;5.78;;
26201;SDS011;13944;28.562;77.188;2022-08-19T11:42:31;18.65;;;6.03;;
26201;SDS011;13944;28.562;77.188;2022-08-19T11:45:16;15.68;;;5.65;;
26201;SDS011;13944;28.562;77.188;2022-08-19T11:47:43;16.20;;;6.10;;
26201;SDS011;13944;28.562;77.188;2022-08-19T11:50:09;18.65;;;6.20;;
26201;SDS011;13944;28.562;77.188;2022-08-19T11:52:36;16.13;;;6.18;;
26201;SDS011;13944;28.562;77.188;2022-08-19T11:55:02;16.92;;;5.38;;
26201;SDS011;13944;28.562;77.188;2022-08-19T11:57:29;17.80;;;5.60;;
26201;SDS011;13944;28.562;77.188;2022-08-19T11:59:55;18.63;;;5.50;;
26201;SDS011;13944;28.562;77.188;2022-08-19T12:02:22;17.23;;;5.75;;
26201;SDS011;13944;28.562;77.188;2022-08-19T12:04:49;16.77;;;5.10;;
26201;SDS011;13944;28.562;77.188;2022-08-19T12:07:15;14.40;;;5.88;;
26201;SDS011;13944;28.562;77.188;2022-08-19T12:09:42;13.90;;;6.20;;
26201;SDS011;13944;28.562;77.188;2022-08-19T12:12:09;17.63;;;6.40;;
26201;SDS011;13944;28.562;77.188;2022-08-19T12:14:35;19.42;;;6.63;;
26201;SDS011;13944;28.562;77.188;2022-08-19T12:17:02;15.75;;;6.20;;
26201;SDS011;13944;28.562;77.188;2022-08-19T12:19:32;18.73;;;6.45;;
26201;SDS011;13944;28.562;77.188;2022-08-19T12:21:59;18.73;;;6.20;;
26201;SDS011;13944;28.562;77.188;2022-08-19T12:24:29;15.85;;;6.63;;
26201;SDS011;13944;28.562;77.188;2022-08-19T12:26:57;16.75;;;5.93;;
26201;SDS011;13944;28.562;77.188;2022-08-19T12:29:24;15.82;;;6.10;;
26201;SDS011;13944;28.562;77.188;2022-08-19T12:31:54;19.75;;;8.02;;
26201;SDS011;13944;28.562;77.188;2022-08-19T12:34:28;17.60;;;6.85;;
26201;SDS011;13944;28.562;77.188;2022-08-19T12:36:56;18.85;;;7.20;;
26201;SDS011;13944;28.562;77.188;2022-08-19T12:39:24;19.42;;;7.65;;
26201;SDS011;13944;28.562;77.188;2022-08-19T12:41:51;18.45;;;7.35;;
26201;SDS011;13944;28.562;77.188;2022-08-19T12:44:17;22.35;;;8.02;;
26201;SDS011;13944;28.562;77.188;2022-08-19T12:46:44;18.90;;;8.05;;
26201;SDS011;13944;28.562;77.188;2022-08-19T12:49:10;22.13;;;8.10;;
26201;SDS011;13944;28.562;77.188;2022-08-19T12:51:37;22.40;;;7.60;;
26201;SDS011;13944;28.562;77.188;2022-08-19T12:54:03;17.30;;;7.03;;
26201;SDS011;13944;28.562;77.188;2022-08-19T12:56:31;18.33;;;7.10;;
26201;SDS011;13944;28.562;77.188;2022-08-19T12:59:00;18.60;;;7.70;;
26201;SDS011;13944;28.562;77.188;2022-08-19T13:01:27;20.98;;;7.50;;
26201;SDS011;13944;28.562;77.188;2022-08-19T13:03:58;22.45;;;7.53;;
26201;SDS011;13944;28.562;77.188;2022-08-19T13:06:25;19.17;;;6.80;;
26201;SDS011;13944;28.562;77.188;2022-08-19T13:08:51;17.98;;;7.30;;
26201;SDS011;13944;28.562;77.188;2022-08-19T13:11:19;23.45;;;7.15;;
26201;SDS011;13944;28.562;77.188;2022-08-19T13:13:46;17.60;;;7.35;;
26201;SDS011;13944;28.562;77.188;2022-08-19T13:16:13;20.58;;;7.45;;
26201;SDS011;13944;28.562;77.188;2022-08-19T13:18:40;17.23;;;7.78;;
26201;SDS011;13944;28.562;77.188;2022-08-19T13:21:09;24.42;;;7.35;;
26201;SDS011;13944;28.562;77.188;2022-08-19T13:23:39;19.13;;;7.97;;
26201;SDS011;13944;28.562;77.188;2022-08-19T13:26:06;19.45;;;7.85;;
26201;SDS011;13944;28.562;77.188;2022-08-19T13:28:34;22.90;;;7.70;;
26201;SDS011;13944;28.562;77.188;2022-08-19T13:31:20;20.42;;;7.40;;
26201;SDS011;13944;28.562;77.188;2022-08-19T13:34:05;20.38;;;7.47;;
26201;SDS011;13944;28.562;77.188;2022-08-19T13:36:32;21.35;;;7.63;;
26201;SDS011;13944;28.562;77.188;2022-08-19T13:38:59;17.02;;;7.35;;
26201;SDS011;13944;28.562;77.188;2022-08-19T13:41:29;20.45;;;7.88;;
26201;SDS011;13944;28.562;77.188;2022-08-19T13:43:56;19.35;;;6.82;;
26201;SDS011;13944;28.562;77.188;2022-08-19T13:46:22;21.65;;;7.40;;
26201;SDS011;13944;28.562;77.188;2022-08-19T13:48:49;18.33;;;7.25;;
26201;SDS011;13944;28.562;77.188;2022-08-19T13:51:16;20.50;;;7.38;;
26201;SDS011;13944;28.562;77.188;2022-08-19T13:53:43;19.02;;;7.55;;
26201;SDS011;13944;28.562;77.188;2022-08-19T13:56:11;21.48;;;7.95;;
26201;SDS011;13944;28.562;77.188;2022-08-19T13:58:38;17.42;;;7.97;;
26201;SDS011;13944;28.562;77.188;2022-08-19T14:01:05;16.70;;;7.68;;
26201;SDS011;13944;28.562;77.188;2022-08-19T14:03:32;18.70;;;7.40;;
26201;SDS011;13944;28.562;77.188;2022-08-19T14:05:59;22.27;;;7.60;;
26201;SDS011;13944;28.562;77.188;2022-08-19T14:08:27;23.27;;;8.18;;
26201;SDS011;13944;28.562;77.188;2022-08-19T14:10:54;21.73;;;8.70;;
26201;SDS011;13944;28.562;77.188;2022-08-19T14:13:22;22.77;;;9.20;;
26201;SDS011;13944;28.562;77.188;2022-08-19T14:15:49;21.90;;;8.85;;
26201;SDS011;13944;28.562;77.188;2022-08-19T14:18:16;20.40;;;8.82;;
26201;SDS011;13944;28.562;77.188;2022-08-19T14:20:43;19.30;;;7.90;;
26201;SDS011;13944;28.562;77.188;2022-08-19T14:23:10;21.55;;;9.18;;
26201;SDS011;13944;28.562;77.188;2022-08-19T14:25:37;22.20;;;9.10;;
26201;SDS011;13944;28.562;77.188;2022-08-19T14:28:04;22.58;;;9.05;;
26201;SDS011;13944;28.562;77.188;2022-08-19T14:30:33;23.95;;;9.52;;
26201;SDS011;13944;28.562;77.188;2022-08-19T14:33:02;21.08;;;9.65;;
26201;SDS011;13944;28.562;77.188;2022-08-19T14:35:29;20.80;;;8.70;;
26201;SDS011;13944;28.562;77.188;2022-08-19T14:37:59;20.33;;;8.93;;